Time;durP1;ratioP1;P1;durP2;ratioP2;P2;SDS_P1;SDS_P2;PMS_P1;PMS_P2;Temp;Humidity;BMP_temperature;BMP_pressure;BME280_temperature;BME280_humidity;BME280_pressure;Samples;Min_cycle;Max_cycle;Signal;HPM_P1;HPM_P2
2020/12/16 00:01:28;;;;;;;7.15;2.28;;;;;;;5.10;98.54;98305.31;5074286;28;20021;-85
2020/12/16 00:03:54;;;;;;;2.97;1.55;;;;;;;5.18;99.29;98313.94;5092693;28;20341;-85
2020/12/16 00:06:20;;;;;;;1.55;1.45;;;;;;;5.12;99.19;98306.13;5085347;28;20100;-85
2020/12/16 00:08:45;;;;;;;1.77;1.65;;;;;;;5.23;99.00;98317.34;5072271;28;20484;-85
2020/12/16 00:11:11;;;;;;;3.45;2.60;;;;;;;5.37;98.17;98317.78;5072516;28;20502;-85
2020/12/16 00:13:37;;;;;;;1.15;1.05;;;;;;;5.34;97.70;98315.22;5073401;28;20027;-85
2020/12/16 00:16:02;;;;;;;2.05;1.77;;;;;;;5.23;97.76;98309.38;5073579;28;20058;-84
2020/12/16 00:18:28;;;;;;;1.98;1.60;;;;;;;5.20;97.21;98302.34;5073166;28;20035;-85
2020/12/16 00:20:54;;;;;;;1.88;1.30;;;;;;;5.34;98.11;98317.88;5056699;28;20024;-84
2020/12/16 00:23:19;;;;;;;2.15;1.92;;;;;;;5.20;97.91;98312.13;5072789;28;20032;-84
2020/12/16 00:25:45;;;;;;;1.05;0.95;;;;;;;5.14;98.09;98310.47;5073349;28;20483;-85
2020/12/16 00:28:11;;;;;;;2.13;1.67;;;;;;;5.15;98.69;98319.31;5073017;28;20052;-85
2020/12/16 00:30:37;;;;;;;3.40;2.35;;;;;;;5.12;99.44;98320.28;5082395;28;20036;-85
2020/12/16 00:33:03;;;;;;;4.50;2.05;;;;;;;5.01;99.45;98310.88;5088692;28;20485;-85
2020/12/16 00:35:32;;;;;;;3.10;1.75;;;;;;;5.07;99.62;98313.38;5072777;28;20032;-85
2020/12/16 00:37:57;;;;;;;0.85;0.85;;;;;;;5.06;99.32;98320.44;5089796;28;20115;-85
2020/12/16 00:40:23;;;;;;;3.63;2.38;;;;;;;5.07;99.23;98305.41;5089704;28;20111;-85
2020/12/16 00:42:50;;;;;;;0.73;0.70;;;;;;;5.15;99.41;98306.94;5072537;28;20109;-85
2020/12/16 00:45:18;;;;;;;2.35;2.15;;;;;;;5.17;98.98;98313.06;5075049;28;20034;-85
2020/12/16 00:47:43;;;;;;;3.45;1.35;;;;;;;5.00;98.69;98290.59;5093640;28;20086;-85
2020/12/16 00:50:10;;;;;;;1.90;0.75;;;;;;;5.12;100.00;98308.78;5086334;28;20115;-85
2020/12/16 00:52:36;;;;;;;4.45;2.25;;;;;;;5.14;99.73;98305.19;5066474;28;20118;-85
2020/12/16 00:55:04;;;;;;;6.75;3.25;;;;;;;5.16;98.77;98297.19;5074331;28;20062;-85
2020/12/16 00:57:30;;;;;;;3.65;1.83;;;;;;;5.25;98.95;98304.88;5076303;28;20097;-85
2020/12/16 00:59:55;;;;;;;2.80;1.83;;;;;;;5.21;99.02;98298.81;5076445;28;20032;-85
2020/12/16 01:02:21;;;;;;;1.85;1.35;;;;;;;5.20;98.24;98294.41;5071739;28;20503;-85
2020/12/16 01:04:46;;;;;;;3.08;1.65;;;;;;;5.18;97.78;98298.00;5063704;28;20492;-85
2020/12/16 01:07:12;;;;;;;2.22;1.88;;;;;;;5.25;98.42;98300.47;5085160;28;20113;-85
2020/12/16 01:09:38;;;;;;;7.85;1.98;;;;;;;5.13;98.18;98300.81;5082520;28;20056;-85
2020/12/16 01:12:03;;;;;;;7.90;2.15;;;;;;;5.07;98.49;98294.81;5094223;28;20031;-85
2020/12/16 01:14:30;;;;;;;4.18;2.20;;;;;;;5.08;98.14;98301.81;5080505;28;20108;-85
2020/12/16 01:16:55;;;;;;;3.15;2.03;;;;;;;5.05;98.62;98286.88;5082000;28;20032;-85
2020/12/16 01:19:21;;;;;;;3.47;2.17;;;;;;;5.15;98.41;98293.66;5088373;28;20055;-85
2020/12/16 01:21:47;;;;;;;6.97;2.33;;;;;;;5.22;98.22;98295.25;5097417;28;20028;-85
2020/12/16 01:24:12;;;;;;;1.40;1.33;;;;;;;5.20;98.46;98289.09;5084908;28;20064;-85
2020/12/16 01:26:46;;;;;;;0.80;0.80;;;;;;;5.26;98.58;98296.03;5066429;28;20028;-84
2020/12/16 01:29:15;;;;;;;3.13;2.78;;;;;;;5.20;98.11;98281.13;5087032;28;20031;-85
2020/12/16 01:31:43;;;;;;;2.60;2.40;;;;;;;5.21;97.92;98282.00;5086127;28;20025;-86
2020/12/16 01:34:10;;;;;;;10.13;1.52;;;;;;;4.99;98.58;98283.53;5084293;28;20023;-85
2020/12/16 01:36:40;;;;;;;2.00;1.75;;;;;;;5.07;99.21;98281.56;5095785;28;20038;-84
2020/12/16 01:39:07;;;;;;;2.88;2.03;;;;;;;5.06;98.41;98277.16;5086302;28;20039;-85
2020/12/16 01:41:33;;;;;;;2.10;1.23;;;;;;;4.90;99.04;98282.88;5097494;28;20522;-85
2020/12/16 01:44:22;;;;;;;1.80;1.70;;;;;;;4.80;100.00;98289.34;5083916;28;20066;-86
2020/12/16 01:46:51;;;;;;;0.85;0.85;;;;;;;4.88;100.00;98281.19;5085604;28;20039;-85
2020/12/16 01:49:18;;;;;;;4.97;2.40;;;;;;;4.89;100.00;98264.38;5110102;28;20416;-85
2020/12/16 01:51:45;;;;;;;1.90;1.63;;;;;;;4.90;100.00;98282.00;5075857;28;20017;-85
2020/12/16 01:54:14;;;;;;;2.90;2.17;;;;;;;4.91;99.95;98267.84;5101632;28;20380;-85
2020/12/16 01:56:41;;;;;;;10.88;4.07;;;;;;;4.91;100.00;98266.09;5090213;28;20482;-85
2020/12/16 01:59:13;;;;;;;27.98;3.90;;;;;;;4.93;100.00;98266.91;5084079;28;20028;-85
2020/12/16 02:01:42;;;;;;;0.95;0.82;;;;;;;4.82;100.00;98263.69;5100513;28;20028;-84
2020/12/16 02:04:09;;;;;;;0.55;0.55;;;;;;;4.91;100.00;98268.72;5074760;28;20525;-85
2020/12/16 02:06:35;;;;;;;1.27;1.17;;;;;;;4.91;100.00;98263.44;5080029;28;20035;-85
2020/12/16 02:09:07;;;;;;;2.38;1.00;;;;;;;4.88;100.00;98254.69;5086959;27;20085;-85
2020/12/16 02:11:35;;;;;;;1.17;1.17;;;;;;;4.63;100.00;98237.72;5098980;27;20027;-85
2020/12/16 02:14:04;;;;;;;1.70;1.58;;;;;;;4.80;100.00;98270.78;5101295;27;20072;-85
2020/12/16 02:16:30;;;;;;;6.50;3.33;;;;;;;4.84;100.00;98256.56;5090159;27;20427;-85
2020/12/16 02:18:56;;;;;;;0.95;0.75;;;;;;;4.82;100.00;98265.47;5095017;28;20034;-85
2020/12/16 02:21:21;;;;;;;1.33;1.25;;;;;;;4.73;100.00;98249.81;5088588;27;20027;-84
2020/12/16 02:23:47;;;;;;;3.80;2.55;;;;;;;4.59;100.00;98263.44;5098231;27;20030;-85
2020/12/16 02:26:14;;;;;;;1.95;1.65;;;;;;;4.65;100.00;98273.84;5114910;27;20031;-85
2020/12/16 02:28:41;;;;;;;3.50;1.70;;;;;;;4.56;100.00;98263.50;5098133;27;20027;-85
2020/12/16 02:31:08;;;;;;;3.55;2.65;;;;;;;4.69;100.00;98272.88;5102965;28;20028;-85
2020/12/16 02:33:34;;;;;;;4.65;1.73;;;;;;;4.78;100.00;98275.28;5090021;27;20045;-84
2020/12/16 02:35:59;;;;;;;0.90;0.80;;;;;;;4.82;100.00;98271.63;5097939;27;20035;-85
2020/12/16 02:38:25;;;;;;;3.25;1.65;;;;;;;4.81;100.00;98283.13;5097409;27;20027;-85
2020/12/16 02:40:51;;;;;;;3.40;2.47;;;;;;;4.83;100.00;98265.41;5114947;27;20023;-85
2020/12/16 02:43:16;;;;;;;4.28;2.50;;;;;;;4.84;100.00;98255.69;5097959;27;20035;-86
2020/12/16 02:45:42;;;;;;;2.35;1.30;;;;;;;4.83;100.00;98265.41;5097864;27;20103;-85
2020/12/16 02:48:08;;;;;;;1.48;1.38;;;;;;;4.95;100.00;98277.47;5097689;27;20038;-85
2020/12/16 02:54:08;;;;;;;7.28;2.00;;;;;;;4.82;100.00;98273.41;5030164;28;20040;-86
2020/12/16 02:56:33;;;;;;;1.15;0.98;;;;;;;4.79;100.00;98271.72;5013289;28;20504;-85
2020/12/16 02:58:59;;;;;;;1.45;1.20;;;;;;;4.79;100.00;98273.50;5099286;27;20041;-85
2020/12/16 03:01:25;;;;;;;3.30;1.73;;;;;;;4.86;100.00;98272.44;5097506;27;20037;-86
2020/12/16 03:03:50;;;;;;;5.07;1.60;;;;;;;4.97;100.00;98274.75;5114531;27;20053;-86
2020/12/16 03:06:16;;;;;;;3.15;2.25;;;;;;;4.88;100.00;98263.50;5114692;27;20462;-85
2020/12/16 03:08:42;;;;;;;2.40;2.00;;;;;;;4.88;100.00;98274.13;5095094;27;20523;-85
2020/12/16 03:11:08;;;;;;;2.85;2.20;;;;;;;4.95;100.00;98284.56;5077283;28;20416;-85
2020/12/16 03:13:34;;;;;;;3.72;2.63;;;;;;;4.82;100.00;98284.00;5094288;28;20028;-85
2020/12/16 03:15:59;;;;;;;3.33;2.95;;;;;;;4.72;100.00;98272.78;5109118;27;20031;-85
2020/12/16 03:18:25;;;;;;;6.20;3.90;;;;;;;4.81;100.00;98291.09;5096974;27;20027;-86
2020/12/16 03:20:50;;;;;;;6.25;4.30;;;;;;;4.77;100.00;98275.31;5097288;27;20038;-86
2020/12/16 03:23:16;;;;;;;13.05;5.70;;;;;;;4.79;100.00;98284.97;5114127;27;20170;-86
2020/12/16 03:25:42;;;;;;;3.67;2.95;;;;;;;4.85;100.00;98290.09;5097438;27;20474;-85
2020/12/16 03:28:07;;;;;;;3.00;2.60;;;;;;;4.81;100.00;98280.50;5097481;27;20126;-85
2020/12/16 03:30:33;;;;;;;1.77;1.67;;;;;;;4.58;100.00;98263.47;5096783;28;20034;-85
2020/12/16 03:32:58;;;;;;;4.53;2.95;;;;;;;4.60;100.00;98281.06;5114002;27;20119;-83
2020/12/16 03:35:24;;;;;;;2.47;1.95;;;;;;;4.48;100.00;98276.09;5097281;27;20038;-85
2020/12/16 03:37:50;;;;;;;2.67;1.92;;;;;;;4.46;100.00;98283.19;5096664;28;20023;-84
2020/12/16 03:40:15;;;;;;;2.03;1.33;;;;;;;4.51;100.00;98289.25;5096817;28;20041;-84
2020/12/16 03:42:41;;;;;;;2.45;1.73;;;;;;;4.55;100.00;98288.28;5096836;28;20034;-85
2020/12/16 03:45:07;;;;;;;2.00;1.60;;;;;;;4.64;100.00;98293.34;5096606;28;20145;-85
2020/12/16 03:47:32;;;;;;;2.38;1.45;;;;;;;4.64;100.00;98290.69;5096279;28;20041;-83
2020/12/16 03:49:58;;;;;;;2.03;1.67;;;;;;;4.59;100.00;98287.28;5096570;28;20136;-83
2020/12/16 03:52:24;;;;;;;1.75;1.63;;;;;;;4.54;100.00;98283.00;5096188;28;20027;-83
2020/12/16 03:54:49;;;;;;;2.55;2.03;;;;;;;4.53;100.00;98292.72;5096284;28;20400;-84
2020/12/16 03:57:15;;;;;;;2.63;1.60;;;;;;;4.64;100.00;98303.06;5096237;28;20023;-84
2020/12/16 03:59:40;;;;;;;2.22;1.35;;;;;;;4.52;100.00;98296.31;5096507;28;20042;-83
2020/12/16 04:02:07;;;;;;;0.57;0.57;;;;;;;4.34;100.00;98296.75;5096697;28;20106;-84
2020/12/16 04:04:32;;;;;;;2.70;2.20;;;;;;;4.28;100.00;98299.56;5097130;28;20067;-84
2020/12/16 04:06:58;;;;;;;2.15;1.52;;;;;;;4.15;100.00;98288.41;5096331;28;20069;-84
2020/12/16 04:09:25;;;;;;;1.67;1.58;;;;;;;4.24;100.00;98311.16;5096406;28;20051;-84
2020/12/16 04:11:54;;;;;;;9.30;1.67;;;;;;;4.25;100.00;98307.56;5105137;28;20027;-84
2020/12/16 04:14:21;;;;;;;1.73;1.63;;;;;;;4.27;100.00;98297.84;5113652;28;20159;-83
2020/12/16 04:16:46;;;;;;;2.33;1.27;;;;;;;4.33;100.00;98297.69;5100424;28;20518;-85
2020/12/16 04:19:12;;;;;;;1.90;1.65;;;;;;;4.33;100.00;98295.03;5114211;27;20176;-84
2020/12/16 04:21:38;;;;;;;4.30;2.08;;;;;;;4.29;100.00;98283.66;5100220;27;20413;-84
2020/12/16 04:24:03;;;;;;;2.92;2.38;;;;;;;4.37;100.00;98297.53;5100211;27;20061;-83
2020/12/16 04:26:29;;;;;;;2.08;1.73;;;;;;;4.46;100.00;98307.03;5100202;27;20557;-85
2020/12/16 04:28:55;;;;;;;2.72;2.28;;;;;;;4.41;100.00;98311.59;5100311;27;20110;-84
2020/12/16 04:31:20;;;;;;;6.63;1.80;;;;;;;4.33;100.00;98303.84;5117393;27;20439;-85
2020/12/16 04:33:46;;;;;;;2.67;2.38;;;;;;;4.36;100.00;98311.72;5100280;27;20402;-84
2020/12/16 04:36:12;;;;;;;1.65;1.50;;;;;;;4.31;100.00;98308.28;5099895;27;20107;-85
2020/12/16 04:38:37;;;;;;;2.00;1.75;;;;;;;4.36;100.00;98317.03;5099824;27;20035;-84
2020/12/16 04:41:06;;;;;;;1.92;1.60;;;;;;;4.37;100.00;98323.16;5100059;27;20111;-84
2020/12/16 04:43:32;;;;;;;4.55;2.75;;;;;;;4.43;100.00;98327.47;5101374;28;20033;-85
2020/12/16 04:45:58;;;;;;;5.25;4.15;;;;;;;4.50;100.00;98326.38;5091695;27;20023;-85
2020/12/16 04:48:23;;;;;;;11.25;2.00;;;;;;;4.38;100.00;98324.91;5099728;27;20103;-85
2020/12/16 04:50:49;;;;;;;2.58;1.95;;;;;;;4.41;100.00;98332.78;5099624;27;20072;-84
2020/12/16 04:53:19;;;;;;;4.50;2.25;;;;;;;4.39;100.00;98337.25;5099649;27;20038;-82
2020/12/16 04:55:46;;;;;;;1.85;1.70;;;;;;;4.32;100.00;98338.31;5099757;27;20170;-84
2020/12/16 04:58:11;;;;;;;2.30;1.77;;;;;;;4.37;100.00;98344.34;5099301;27;20026;-86
2020/12/16 05:00:37;;;;;;;2.80;1.75;;;;;;;4.32;100.00;98335.66;5099154;27;20023;-84
2020/12/16 05:03:05;;;;;;;2.95;2.05;;;;;;;4.26;100.00;98349.03;5098900;27;20046;-84
2020/12/16 05:05:33;;;;;;;3.10;1.70;;;;;;;4.27;100.00;98337.56;5098237;27;20038;-85
2020/12/16 05:08:15;;;;;;;0.73;0.73;;;;;;;4.28;100.00;98341.91;5098464;27;20133;-85
2020/12/16 05:10:43;;;;;;;2.35;2.13;;;;;;;4.20;100.00;98333.31;5098288;27;20051;-85
2020/12/16 05:13:20;;;;;;;1.08;0.93;;;;;;;4.09;100.00;98330.91;5099033;27;20106;-85
2020/12/16 05:15:47;;;;;;;1.15;1.10;;;;;;;4.13;100.00;98319.34;5098690;27;20435;-85
2020/12/16 05:18:22;;;;;;;1.55;1.45;;;;;;;4.30;100.00;98348.06;5098615;27;20030;-84
2020/12/16 05:20:58;;;;;;;3.25;2.45;;;;;;;4.30;100.00;98340.13;5100033;27;20420;-85
2020/12/16 05:23:28;;;;;;;5.00;2.55;;;;;;;4.27;100.00;98349.03;5100131;27;20110;-86
2020/12/16 05:25:56;;;;;;;2.13;1.52;;;;;;;4.34;100.00;98349.72;5114291;27;20023;-84
2020/12/16 05:28:26;;;;;;;2.78;2.17;;;;;;;4.36;100.00;98343.50;5116174;27;20059;-86
2020/12/16 05:30:56;;;;;;;1.80;1.70;;;;;;;4.29;100.00;98330.44;5095377;28;20035;-85
2020/12/16 05:33:22;;;;;;;0.93;0.85;;;;;;;4.41;100.00;98340.72;5099399;27;20031;-86
2020/12/16 05:36:29;;;;;;;1.20;1.20;;;;;;;4.55;100.00;98354.50;5100380;27;20031;-86
2020/12/16 05:38:56;;;;;;;1.60;1.50;;;;;;;4.45;100.00;98338.88;5118538;27;20043;-89
2020/12/16 05:41:55;;;;;;;1.70;1.60;;;;;;;4.25;100.00;98302.28;5116016;27;20056;-87
2020/12/16 05:44:33;;;;;;;4.22;2.30;;;;;;;4.42;100.00;98325.72;5115466;27;20164;-86
2020/12/16 05:47:08;;;;;;;3.97;2.20;;;;;;;4.31;100.00;98318.00;5099819;27;20418;-90
2020/12/16 05:49:33;;;;;;;1.75;1.63;;;;;;;4.49;100.00;98349.34;5102857;27;20031;-86
2020/12/16 05:52:01;;;;;;;2.08;1.52;;;;;;;4.50;100.00;98366.97;5100016;27;20504;-88
2020/12/16 05:54:27;;;;;;;1.98;1.80;;;;;;;4.33;100.00;98329.47;5099324;27;20027;-83
2020/12/16 05:57:15;;;;;;;1.95;1.85;;;;;;;4.59;100.00;98369.41;5097962;27;20476;-82
2020/12/16 05:59:41;;;;;;;5.63;2.15;;;;;;;4.58;100.00;98362.38;5114658;27;20031;-82
2020/12/16 06:02:07;;;;;;;1.52;1.15;;;;;;;4.59;100.00;98364.09;5104419;27;20024;-83
2020/12/16 06:04:36;;;;;;;1.60;1.50;;;;;;;4.52;100.00;98353.72;5104711;28;20122;-82
2020/12/16 06:07:03;;;;;;;5.32;3.60;;;;;;;4.59;100.00;98382.66;5111565;27;20027;-81
2020/12/16 06:09:49;;;;;;;2.03;1.92;;;;;;;4.72;100.00;98384.09;5097572;27;20122;-80
2020/12/16 06:12:15;;;;;;;3.20;2.53;;;;;;;4.67;100.00;98391.28;5087913;27;20043;-80
2020/12/16 06:14:43;;;;;;;6.35;2.65;;;;;;;4.72;100.00;98388.50;5097504;27;20019;-81
2020/12/16 06:17:11;;;;;;;2.95;2.35;;;;;;;4.59;100.00;98380.00;5097335;27;20080;-80
2020/12/16 06:19:42;;;;;;;4.03;2.38;;;;;;;4.60;100.00;98386.16;5096023;28;20019;-83
2020/12/16 06:22:08;;;;;;;4.80;2.78;;;;;;;4.61;100.00;98386.16;5078467;27;20525;-80
2020/12/16 06:24:42;;;;;;;6.22;2.92;;;;;;;4.74;100.00;98398.16;5097028;27;20068;-81
2020/12/16 06:27:08;;;;;;;2.63;2.13;;;;;;;4.66;100.00;98393.97;5102605;28;20031;-81
2020/12/16 06:29:41;;;;;;;2.63;2.28;;;;;;;4.54;100.00;98387.19;5097945;27;20031;-80
2020/12/16 06:32:16;;;;;;;53.55;20.58;;;;;;;4.47;100.00;98398.84;5096534;27;20083;-82
2020/12/16 06:34:44;;;;;;;48.95;19.20;;;;;;;4.38;100.00;98388.47;5080007;27;20031;-84
2020/12/16 06:37:15;;;;;;;50.95;22.55;;;;;;;4.42;100.00;98390.16;5097829;27;20492;-83
2020/12/16 06:39:40;;;;;;;77.70;32.72;;;;;;;4.43;100.00;98391.88;5119699;27;20034;-83
2020/12/16 06:42:06;;;;;;;69.00;30.50;;;;;;;4.49;100.00;98402.31;5096106;27;20030;-82
2020/12/16 06:45:19;;;;;;;;;;;;;;;;;;;;;
2020/12/16 06:47:45;;;;;;;63.08;25.55;;;;;;;4.53;100.00;98390.75;5128208;27;20026;-83
2020/12/16 06:50:29;;;;;;;89.78;33.95;;;;;;;4.59;100.00;98392.38;5097030;27;20107;-83
2020/12/16 06:52:54;;;;;;;46.17;21.05;;;;;;;4.69;100.00;98392.09;5086043;27;20037;-83
2020/12/16 06:56:07;;;;;;;40.10;17.80;;;;;;;4.63;100.00;98410.81;5099654;27;20544;-85
2020/12/16 06:58:45;;;;;;;53.88;22.75;;;;;;;4.48;100.00;98379.41;5106039;27;20031;-83
2020/12/16 07:02:13;;;;;;;;;;;;;;;;;;;;;
2020/12/16 07:04:58;;;;;;;30.42;13.60;;;;;;;4.35;100.00;98367.34;5111301;27;20409;-83
2020/12/16 07:08:00;;;;;;;39.13;15.75;;;;;;;4.67;100.00;98412.50;5096918;27;20041;-83
2020/12/16 07:10:40;;;;;;;41.28;17.90;;;;;;;4.69;100.00;98405.34;5095734;27;20455;-84
2020/12/16 07:13:16;;;;;;;53.13;22.60;;;;;;;4.66;100.00;98380.72;5113195;27;20020;-82
2020/12/16 07:15:55;;;;;;;38.90;17.50;;;;;;;4.70;100.00;98391.22;5131888;27;20144;-84
2020/12/16 07:18:52;;;;;;;53.33;19.88;;;;;;;4.91;100.00;98424.25;5095636;27;20473;-83
2020/12/16 07:21:22;;;;;;;49.83;22.48;;;;;;;4.79;100.00;98401.56;5096781;27;20589;-84
2020/12/16 07:24:09;;;;;;;58.33;23.23;;;;;;;4.89;100.00;98418.97;5105209;27;20038;-82
2020/12/16 07:26:50;;;;;;;52.63;22.05;;;;;;;4.78;100.00;98410.44;5096505;27;20034;-83
2020/12/16 07:29:36;;;;;;;54.03;22.00;;;;;;;4.84;100.00;98420.00;5097322;27;20049;-84
2020/12/16 07:32:12;;;;;;;150.77;25.13;;;;;;;4.90;100.00;98420.72;5096289;28;20027;-77
2020/12/16 07:34:59;;;;;;;46.60;18.85;;;;;;;4.87;100.00;98419.91;5100611;27;20063;-74
2020/12/16 07:37:38;;;;;;;64.30;27.08;;;;;;;4.83;100.00;98403.22;5083156;27;20084;-85
2020/12/16 07:40:18;;;;;;;61.50;24.58;;;;;;;4.79;100.00;98401.56;5112208;28;20043;-84
2020/12/16 07:53:20;;;;;;;42.95;16.45;;;;;;;4.91;100.00;98430.41;5068796;28;20089;-84
2020/12/16 07:55:45;;;;;;;49.03;20.83;;;;;;;4.86;100.00;98420.84;5060742;28;20040;-85
2020/12/16 07:58:11;;;;;;;53.08;21.83;;;;;;;4.75;100.00;98413.16;5056185;28;20510;-85
2020/12/16 08:00:37;;;;;;;38.55;15.38;;;;;;;4.89;100.00;98418.13;5055736;28;20033;-85
2020/12/16 08:03:02;;;;;;;55.75;23.05;;;;;;;4.84;100.00;98422.66;5042204;28;20071;-83
2020/12/16 08:05:28;;;;;;;30.90;14.23;;;;;;;4.95;100.00;98433.00;5055449;28;20032;-83
2020/12/16 08:08:00;;;;;;;36.10;15.40;;;;;;;4.86;100.00;98403.13;5113205;27;20047;-84
2020/12/16 08:10:26;;;;;;;46.35;18.23;;;;;;;4.85;100.00;98406.72;5112218;27;20047;-83
2020/12/16 08:12:54;;;;;;;34.92;14.75;;;;;;;4.81;100.00;98399.75;5100433;27;20027;-83
2020/12/16 08:15:19;;;;;;;39.22;15.10;;;;;;;4.58;100.00;98377.41;5100538;27;20031;-85
2020/12/16 08:31:18;;;;;;;32.10;13.15;;;;;;;4.70;100.00;98377.97;5115826;28;22087;-84
2020/12/16 08:33:44;;;;;;;33.30;13.93;;;;;;;4.88;100.00;98430.50;5089573;27;20088;-85
2020/12/16 08:36:15;;;;;;;44.33;20.20;;;;;;;4.91;100.00;98426.91;5100725;27;20023;-85
2020/12/16 08:38:44;;;;;;;38.97;18.75;;;;;;;5.10;100.00;98429.94;5099943;27;20514;-85
2020/12/16 08:41:12;;;;;;;32.35;15.57;;;;;;;5.18;100.00;98404.09;5101306;27;20486;-87
2020/12/16 08:43:43;;;;;;;36.42;16.10;;;;;;;5.04;99.33;98364.69;5117756;27;20088;-86
2020/12/16 09:32:15;;;;;;;31.83;13.23;;;;;;;5.25;97.43;98387.09;5013967;28;20109;-90
2020/12/16 09:34:46;;;;;;;33.53;14.63;;;;;;;5.25;97.49;98363.22;4986214;28;20484;-92
2020/12/16 09:37:17;;;;;;;33.75;16.30;;;;;;;5.63;95.96;98389.53;5061152;28;20036;-91
2020/12/16 09:39:44;;;;;;;34.13;15.30;;;;;;;5.71;95.16;98379.59;5083689;28;20016;-80
2020/12/16 09:43:01;;;;;;;28.73;12.52;;;;;;;5.88;93.37;98381.75;5110005;28;20027;-93
2020/12/16 09:45:31;;;;;;;39.38;17.63;;;;;;;5.89;93.55;98352.53;5099066;28;20487;-92
2020/12/16 09:47:59;;;;;;;34.17;15.20;;;;;;;6.07;94.17;98372.31;5082450;28;20027;-92
2020/12/16 09:51:09;;;;;;;78.00;30.70;;;;;;;6.24;91.84;98382.44;5082813;28;20028;-89
2020/12/16 09:53:39;;;;;;;74.85;31.70;;;;;;;6.21;91.78;98359.50;5099262;28;20024;-91
2020/12/16 09:56:07;;;;;;;41.75;17.48;;;;;;;5.99;93.18;98359.31;5084308;28;20024;-92
2020/12/16 09:58:38;;;;;;;40.40;17.42;;;;;;;6.02;93.63;98346.84;5085261;28;20079;-92
2020/12/16 10:01:18;;;;;;;44.03;19.27;;;;;;;5.98;94.22;98357.56;5087611;28;20061;-94
2020/12/16 10:03:45;;;;;;;34.90;16.23;;;;;;;6.21;93.22;98367.47;5064617;28;20040;-93
2020/12/16 10:06:23;;;;;;;40.47;16.75;;;;;;;5.97;92.58;98350.50;5077899;28;20024;-92
2020/12/16 10:08:48;;;;;;;50.53;22.25;;;;;;;6.10;93.16;98350.09;5077352;28;20028;-91
2020/12/16 10:11:14;;;;;;;49.25;22.90;;;;;;;6.18;92.67;98348.09;5078446;28;20042;-89
2020/12/16 10:13:43;;;;;;;60.10;27.13;;;;;;;6.35;92.96;98361.69;5079551;28;20036;-91
2020/12/16 10:16:10;;;;;;;64.65;29.05;;;;;;;6.25;93.02;98339.00;5079923;28;20032;-91
2020/12/16 10:18:36;;;;;;;67.03;29.63;;;;;;;6.48;93.24;98352.41;5079547;28;20441;-91
2020/12/16 10:21:03;;;;;;;59.72;27.15;;;;;;;6.30;92.62;98313.16;5079960;28;20027;-91
2020/12/16 10:23:29;;;;;;;62.53;28.45;;;;;;;6.47;91.63;98342.69;5080830;28;20058;-91
2020/12/16 10:25:55;;;;;;;65.75;30.80;;;;;;;6.19;93.14;98333.88;5080728;28;20020;-90
2020/12/16 10:28:21;;;;;;;63.67;30.85;;;;;;;5.97;93.46;98317.75;5079103;28;20035;-91
2020/12/16 10:30:50;;;;;;;66.75;32.55;;;;;;;6.12;94.30;98327.88;5089268;28;20056;-91
2020/12/16 10:33:17;;;;;;;73.93;34.58;;;;;;;6.31;94.20;98338.78;5080965;28;20090;-91
2020/12/16 10:35:43;;;;;;;77.05;32.45;;;;;;;6.10;93.30;98323.56;5096065;28;20145;-90
2020/12/16 10:41:34;;;;;;;66.43;31.20;;;;;;;6.05;94.24;98322.84;5094991;28;20078;-91
2020/12/16 10:44:00;;;;;;;74.75;31.60;;;;;;;5.96;94.09;98311.59;5077390;28;20565;-91
2020/12/16 10:46:26;;;;;;;83.80;37.70;;;;;;;5.88;95.34;98305.63;5095960;28;20125;-90
2020/12/16 10:48:51;;;;;;;88.80;38.60;;;;;;;6.06;94.89;98312.16;5081058;28;20059;-92
2020/12/16 10:51:17;;;;;;;91.85;41.80;;;;;;;5.89;94.84;98306.50;5075518;28;20028;-90
2020/12/16 10:53:43;;;;;;;87.70;38.75;;;;;;;5.76;95.47;98298.03;5091881;28;20505;-91
2020/12/16 10:56:12;;;;;;;61.03;27.38;;;;;;;5.81;95.02;98290.81;5084152;28;20028;-90
2020/12/16 10:58:38;;;;;;;52.63;22.67;;;;;;;5.98;94.06;98293.81;5080082;28;20085;-89
2020/12/16 11:01:04;;;;;;;43.53;18.83;;;;;;;6.21;92.67;98284.25;5100996;28;20020;-91
2020/12/16 11:03:29;;;;;;;48.20;21.50;;;;;;;6.15;92.16;98292.41;5083596;28;20071;-90
2020/12/16 11:05:55;;;;;;;63.05;26.92;;;;;;;6.23;93.29;98301.00;5087828;28;20470;-90
2020/12/16 11:08:20;;;;;;;72.65;33.35;;;;;;;5.87;93.88;98269.41;5074690;28;20092;-90
2020/12/16 11:10:50;;;;;;;97.72;41.30;;;;;;;6.07;94.51;98302.41;5081022;28;20028;-90
2020/12/16 11:13:16;;;;;;;92.25;40.35;;;;;;;6.12;94.44;98290.72;5070278;28;20059;-91
2020/12/16 11:15:43;;;;;;;91.43;40.80;;;;;;;6.26;94.34;98293.81;5079515;28;20497;-92
2020/12/16 11:18:08;;;;;;;100.53;44.67;;;;;;;6.39;93.44;98299.59;5078796;28;20027;-90
2020/12/16 11:20:34;;;;;;;81.70;35.40;;;;;;;6.32;93.86;98303.34;5080104;28;20446;-92
2020/12/16 11:23:00;;;;;;;79.40;34.92;;;;;;;6.22;93.84;98284.19;5098570;28;20031;-91
2020/12/16 11:25:25;;;;;;;81.30;34.90;;;;;;;6.26;94.28;98298.25;5095977;28;20037;-90
2020/12/16 11:27:51;;;;;;;83.32;37.08;;;;;;;6.16;94.51;98271.09;5079790;28;20032;-92
2020/12/16 11:30:17;;;;;;;78.55;35.42;;;;;;;6.40;93.10;98296.84;5088630;28;20047;-91
2020/12/16 11:32:43;;;;;;;74.70;34.38;;;;;;;6.31;93.61;98280.34;5082671;28;20056;-91
2020/12/16 11:35:09;;;;;;;80.28;34.95;;;;;;;6.29;94.62;98282.19;5079961;28;20128;-91
2020/12/16 11:37:38;;;;;;;86.75;36.25;;;;;;;6.28;94.05;98281.31;5091019;28;20016;-92
2020/12/16 11:40:04;;;;;;;80.68;33.67;;;;;;;6.01;94.80;98276.91;5086928;28;20027;-92
2020/12/16 11:42:29;;;;;;;88.22;39.75;;;;;;;5.91;94.86;98270.16;5081379;28;20028;-92
2020/12/16 11:44:55;;;;;;;91.80;38.60;;;;;;;5.81;96.20;98266.03;5083954;28;20031;-90
2020/12/16 11:47:21;;;;;;;82.88;36.90;;;;;;;6.02;96.54;98283.97;5083819;28;20522;-87
2020/12/16 11:50:10;;;;;;;85.03;37.10;;;;;;;6.20;96.53;98293.13;5055820;28;20113;-91
2020/12/16 11:52:36;;;;;;;87.32;37.97;;;;;;;5.97;96.33;98281.47;5082943;28;20021;-91
2020/12/16 11:55:04;;;;;;;81.72;35.67;;;;;;;6.10;96.01;98289.03;5080594;28;20044;-90
2020/12/16 11:57:30;;;;;;;92.68;38.00;;;;;;;5.99;95.96;98290.25;5064985;28;20025;-79
2020/12/16 11:59:55;;;;;;;89.38;36.45;;;;;;;6.11;96.32;98293.44;5084820;28;20042;-79
2020/12/16 12:02:24;;;;;;;88.03;35.63;;;;;;;6.18;95.78;98289.66;5105632;28;20077;-91
2020/12/16 12:05:29;;;;;;;77.35;35.15;;;;;;;6.36;95.08;98305.00;5106185;28;20046;-91
2020/12/16 12:08:03;;;;;;;83.10;35.45;;;;;;;5.97;95.06;98278.81;5120439;28;20031;-91
2020/12/16 12:24:57;;;;;;;;;;;;;;;;;;;;;
2020/12/16 12:27:30;;;;;;;61.10;26.45;;;;;;;5.52;98.68;98255.44;5119088;28;20126;-89
2020/12/16 12:34:33;;;;;;;63.33;26.67;;;;;;;6.08;98.60;98298.84;5121913;28;20043;-90
2020/12/16 12:37:05;;;;;;;66.93;29.08;;;;;;;5.88;97.43;98256.97;5119789;28;20031;-95
2020/12/16 12:39:31;;;;;;;67.28;26.55;;;;;;;5.86;97.22;98246.44;5104574;28;20035;-92
2020/12/16 12:45:18;;;;;;;108.22;51.75;;;;;;;6.28;96.45;98286.63;5100937;28;20055;-90
2020/12/16 12:54:56;;;;;;;66.95;27.52;;;;;;;6.07;96.39;98302.41;5080332;28;20108;-92
2020/12/16 12:57:24;;;;;;;68.35;27.10;;;;;;;6.04;96.42;98275.94;5063310;28;20043;-91
2020/12/16 12:59:51;;;;;;;73.57;30.48;;;;;;;6.19;96.61;98300.22;5078703;28;20429;-90
2020/12/16 13:02:27;;;;;;;70.65;29.63;;;;;;;6.02;97.42;98307.00;5096317;28;20040;-91
2020/12/16 13:04:53;;;;;;;84.68;32.00;;;;;;;5.94;98.56;98292.16;5103784;28;20047;-91
2020/12/16 13:07:19;;;;;;;66.82;28.77;;;;;;;5.66;98.24;98238.19;5105971;28;20023;-90
2020/12/16 13:09:45;;;;;;;73.65;29.38;;;;;;;5.85;97.70;98278.28;5105368;28;20454;-90
2020/12/16 13:12:11;;;;;;;78.90;34.75;;;;;;;5.84;97.82;98268.59;5097029;28;20028;-90
2020/12/16 13:14:37;;;;;;;62.97;28.75;;;;;;;6.07;97.87;98278.50;5083633;28;20036;-91
2020/12/16 13:17:03;;;;;;;73.43;29.85;;;;;;;6.34;97.21;98306.81;5084950;28;20024;-88
2020/12/16 13:19:29;;;;;;;72.93;30.13;;;;;;;5.90;97.26;98237.47;5085748;28;20123;-89
2020/12/16 13:21:55;;;;;;;80.30;32.72;;;;;;;5.98;97.44;98261.97;5083754;28;20063;-88
2020/12/16 13:24:24;;;;;;;85.80;31.98;;;;;;;6.07;98.22;98307.72;5084369;28;20091;-90
2020/12/16 13:26:51;;;;;;;81.20;32.58;;;;;;;6.05;98.64;98298.94;5083468;28;20048;-90
2020/12/16 13:29:17;;;;;;;74.90;31.73;;;;;;;6.00;98.98;98301.72;5083633;28;20023;-90
2020/12/16 13:32:25;;;;;;;84.03;35.40;;;;;;;6.21;98.21;98302.84;5101491;28;20055;-89